Time;durP1;ratioP1;P1;durP2;ratioP2;P2;SDS_P1;SDS_P2;PMS_P1;PMS_P2;Temp;Humidity;BMP_temperature;BMP_pressure;BME280_temperature;BME280_humidity;BME280_pressure;Samples;Min_cycle;Max_cycle;Signal;HPM_P1;HPM_P2
2021/05/11 00:02:53;;;;;;;16.60;10.55;;;;;;;14.35;100.00;100763.38;6197583;28;20499;-77
2021/05/11 00:05:55;;;;;;;18.15;10.57;;;;;;;14.38;100.00;100775.53;6196024;28;20060;-78
2021/05/11 00:08:56;;;;;;;14.75;10.18;;;;;;;14.46;100.00;100787.25;6201265;28;20050;-78
2021/05/11 00:11:57;;;;;;;15.77;9.85;;;;;;;14.50;100.00;100790.59;6199678;28;20406;-78
2021/05/11 00:14:58;;;;;;;13.88;8.70;;;;;;;14.53;100.00;100789.50;6200311;28;20050;-78
2021/05/11 00:17:59;;;;;;;12.10;8.50;;;;;;;14.43;100.00;100768.97;6200830;28;20046;-78
2021/05/11 00:21:01;;;;;;;12.02;9.25;;;;;;;14.35;100.00;100765.16;6200326;28;20120;-77
2021/05/11 00:24:02;;;;;;;12.45;9.27;;;;;;;14.34;100.00;100748.44;6195735;28;20046;-77
2021/05/11 00:27:03;;;;;;;13.07;8.50;;;;;;;14.23;100.00;100758.91;6196365;28;20046;-77
2021/05/11 00:30:04;;;;;;;15.10;11.45;;;;;;;14.29;100.00;100765.56;6200303;28;20112;-77
2021/05/11 00:33:05;;;;;;;13.75;10.77;;;;;;;14.30;100.00;100768.09;6199736;28;20050;-77
2021/05/11 00:36:07;;;;;;;16.23;11.30;;;;;;;14.37;100.00;100771.19;6200188;28;20112;-77
2021/05/11 00:39:08;;;;;;;16.02;12.60;;;;;;;14.38;100.00;100765.78;6200011;28;20046;-76
2021/05/11 00:42:09;;;;;;;16.80;12.82;;;;;;;14.34;100.00;100766.09;6199881;28;20046;-77
2021/05/11 00:45:10;;;;;;;16.60;13.27;;;;;;;14.36;100.00;100761.56;6199580;28;20133;-76
2021/05/11 00:48:11;;;;;;;15.23;12.25;;;;;;;14.32;100.00;100750.34;6199529;28;20081;-76
2021/05/11 00:51:13;;;;;;;15.90;10.98;;;;;;;14.31;100.00;100738.09;6199895;28;20051;-76
2021/05/11 00:54:14;;;;;;;16.05;11.68;;;;;;;14.26;100.00;100729.66;6198877;28;20058;-76
2021/05/11 00:57:16;;;;;;;18.17;12.38;;;;;;;14.21;100.00;100729.09;6199318;28;20565;-76
2021/05/11 01:00:17;;;;;;;18.63;13.15;;;;;;;14.17;100.00;100740.81;6199543;28;20089;-76
2021/05/11 01:03:18;;;;;;;16.38;13.00;;;;;;;14.21;100.00;100748.44;6199271;28;20050;-75
2021/05/11 01:06:20;;;;;;;24.52;14.60;;;;;;;14.28;100.00;100761.25;6199253;28;20176;-76
2021/05/11 01:09:21;;;;;;;19.33;13.63;;;;;;;14.27;100.00;100751.63;6199220;28;20061;-76
2021/05/11 01:12:22;;;;;;;19.77;13.32;;;;;;;14.24;100.00;100746.53;6199103;28;20050;-76
2021/05/11 01:15:23;;;;;;;20.30;14.57;;;;;;;14.18;100.00;100748.66;6198735;28;20141;-76
2021/05/11 01:18:30;;;;;;;21.23;15.55;;;;;;;14.23;100.00;100753.63;6198887;28;20050;-76
2021/05/11 01:21:40;;;;;;;19.65;13.70;;;;;;;14.21;100.00;100751.06;6198750;28;20093;-76
2021/05/11 01:24:44;;;;;;;22.67;14.18;;;;;;;14.14;100.00;100739.25;6198001;28;20451;-76
2021/05/11 01:27:55;;;;;;;18.35;12.43;;;;;;;14.15;100.00;100713.66;6198755;28;20081;-76
2021/05/11 01:31:22;;;;;;;18.33;14.63;;;;;;;14.11;100.00;100735.97;6198446;28;20133;-76
2021/05/11 01:47:50;;;;;;;17.35;12.80;;;;;;;14.10;100.00;100724.53;6196363;28;20054;-76
2021/05/11 01:50:57;;;;;;;18.20;12.18;;;;;;;14.08;100.00;100729.09;6198459;28;20042;-76
2021/05/11 01:54:21;;;;;;;18.02;12.93;;;;;;;14.09;100.00;100735.22;6197621;28;20057;-76
2021/05/11 02:23:57;;;;;;;6.53;3.10;;;;;;;13.26;100.00;100753.06;6197573;28;20054;-75
2021/05/11 02:26:58;;;;;;;7.68;2.70;;;;;;;12.98;100.00;100753.94;6197653;28;20062;-74
2021/05/11 02:29:59;;;;;;;4.57;1.95;;;;;;;12.95;100.00;100750.56;6197759;28;20133;-76
2021/05/11 02:33:02;;;;;;;2.45;1.80;;;;;;;12.77;100.00;100753.53;6198174;28;20042;-75
2021/05/11 02:36:03;;;;;;;9.32;2.28;;;;;;;12.74;100.00;100761.59;6199760;28;20141;-75
2021/05/11 02:39:06;;;;;;;9.48;2.72;;;;;;;12.66;100.00;100754.16;6202664;28;20061;-75
2021/05/11 02:42:08;;;;;;;4.43;1.80;;;;;;;12.57;100.00;100758.22;6202606;28;20057;-74
2021/05/11 02:45:12;;;;;;;3.78;1.85;;;;;;;12.53;100.00;100745.31;6202183;28;20057;-75
2021/05/11 02:48:13;;;;;;;3.53;1.73;;;;;;;12.55;100.00;100760.09;6202639;28;20450;-74
2021/05/11 02:51:14;;;;;;;5.00;1.85;;;;;;;12.32;100.00;100756.25;6202705;28;20050;-74
2021/05/11 02:54:15;;;;;;;3.83;2.03;;;;;;;12.28;100.00;100757.38;6201681;28;20066;-74
2021/05/11 02:57:16;;;;;;;4.35;1.90;;;;;;;12.38;100.00;100753.22;6202038;28;20054;-74
2021/05/11 03:00:20;;;;;;;4.72;1.90;;;;;;;12.20;100.00;100764.88;6202910;28;20051;-77
2021/05/11 03:03:21;;;;;;;3.53;1.75;;;;;;;12.19;100.00;100769.28;6201818;28;20050;-74
2021/05/11 03:06:22;;;;;;;5.20;1.90;;;;;;;11.94;100.00;100769.03;6201975;28;20065;-74
2021/05/11 03:09:23;;;;;;;5.55;2.40;;;;;;;11.98;100.00;100790.78;6202132;28;20101;-74
2021/05/11 03:12:24;;;;;;;10.48;1.88;;;;;;;11.91;100.00;100775.34;6201647;28;20100;-76
2021/05/11 03:15:26;;;;;;;6.20;1.90;;;;;;;11.85;100.00;100762.53;6201478;28;20054;-77
2021/05/11 03:18:27;;;;;;;5.93;1.98;;;;;;;11.88;100.00;100749.19;6201532;28;20065;-74
2021/05/11 03:21:28;;;;;;;7.80;2.20;;;;;;;11.86;100.00;100761.63;6201722;28;20532;-75
2021/05/11 03:24:29;;;;;;;5.75;2.40;;;;;;;11.79;100.00;100769.91;6201520;28;20475;-74
2021/05/11 03:27:30;;;;;;;2.22;1.40;;;;;;;11.74;100.00;100767.53;6201567;28;20050;-75
2021/05/11 03:30:32;;;;;;;4.35;1.83;;;;;;;11.71;100.00;100761.59;6201476;28;20061;-75
2021/05/11 03:33:33;;;;;;;5.85;1.75;;;;;;;11.76;100.00;100775.34;6201031;28;20480;-74
2021/05/11 03:36:34;;;;;;;2.83;1.40;;;;;;;11.58;100.00;100779.88;6201337;28;20063;-77
2021/05/11 03:39:38;;;;;;;2.80;1.27;;;;;;;11.42;100.00;100774.66;6201213;28;20141;-78
2021/05/11 03:42:42;;;;;;;6.63;1.83;;;;;;;11.57;100.00;100779.03;6201574;28;20060;-75
2021/05/11 03:45:47;;;;;;;5.78;1.92;;;;;;;11.51;100.00;100781.19;6201519;28;20062;-77
2021/05/11 03:48:48;;;;;;;8.65;2.25;;;;;;;11.57;100.00;100778.19;6201286;28;20046;-75
2021/05/11 03:51:49;;;;;;;3.92;2.10;;;;;;;11.64;100.00;100780.41;6201306;28;20061;-75
2021/05/11 03:54:50;;;;;;;6.55;2.05;;;;;;;11.68;100.00;100774.03;6200609;28;20418;-75
2021/05/11 03:57:51;;;;;;;2.72;1.75;;;;;;;11.66;100.00;100773.25;6200807;28;20054;-74
2021/05/11 04:00:53;;;;;;;4.38;1.48;;;;;;;11.66;100.00;100773.25;6200932;28;20162;-75
2021/05/11 04:03:54;;;;;;;4.60;1.67;;;;;;;11.46;100.00;100776.19;6200904;28;20112;-75
2021/05/11 04:06:55;;;;;;;5.07;1.42;;;;;;;11.40;100.00;100766.00;6201227;28;20046;-77
2021/05/11 04:09:58;;;;;;;2.33;1.42;;;;;;;11.54;100.00;100755.53;6200863;28;20046;-75
2021/05/11 04:13:17;;;;;;;5.53;1.95;;;;;;;11.44;100.00;100751.72;6200607;28;20053;-75
2021/05/11 04:16:22;;;;;;;5.53;1.77;;;;;;;11.56;100.00;100748.41;6200443;28;20066;-77
2021/05/11 04:19:23;;;;;;;7.43;2.10;;;;;;;11.41;100.00;100733.50;6200825;28;20426;-77
2021/05/11 04:22:24;;;;;;;7.95;2.35;;;;;;;11.34;100.00;100735.59;6200173;28;20050;-75
2021/05/11 04:25:25;;;;;;;8.88;2.25;;;;;;;11.40;100.00;100739.69;6200206;28;20125;-76
2021/05/11 04:28:26;;;;;;;4.97;2.00;;;;;;;11.45;100.00;100735.03;6200223;28;20061;-75
2021/05/11 04:31:27;;;;;;;3.97;1.65;;;;;;;11.33;100.00;100738.34;6200378;28;20050;-75
2021/05/11 04:34:28;;;;;;;5.53;1.85;;;;;;;11.32;100.00;100734.84;6199849;28;20422;-75
2021/05/11 04:37:29;;;;;;;4.10;2.30;;;;;;;11.42;100.00;100740.44;6199712;28;20085;-75
2021/05/11 04:40:30;;;;;;;3.88;1.67;;;;;;;11.35;100.00;100729.41;6199927;28;20054;-77
2021/05/11 04:43:33;;;;;;;4.93;1.90;;;;;;;11.38;100.00;100736.28;6200240;28;20069;-76
2021/05/11 04:46:46;;;;;;;9.68;5.40;;;;;;;11.39;100.00;100745.88;6200250;28;20081;-76
2021/05/11 04:49:46;;;;;;;4.22;2.65;;;;;;;11.41;100.00;100752.75;6199552;28;20545;-75
2021/05/11 04:52:48;;;;;;;5.35;2.17;;;;;;;11.49;100.00;100754.09;6199376;28;20042;-75
2021/05/11 04:55:49;;;;;;;5.10;2.38;;;;;;;11.53;100.00;100745.94;6198542;28;20519;-76
2021/05/11 04:58:50;;;;;;;6.88;2.85;;;;;;;11.60;100.00;100755.19;6198729;28;20066;-75
2021/05/11 05:01:53;;;;;;;6.13;2.33;;;;;;;11.61;100.00;100751.59;6199468;28;20104;-76
2021/05/11 05:04:54;;;;;;;4.82;2.30;;;;;;;11.50;100.00;100750.53;6199248;28;20050;-76
2021/05/11 05:07:55;;;;;;;4.68;2.28;;;;;;;11.46;100.00;100733.22;6199192;28;20053;-75
2021/05/11 05:10:56;;;;;;;7.03;2.50;;;;;;;11.46;100.00;100726.19;6198887;28;20529;-75
2021/05/11 05:13:57;;;;;;;3.40;2.20;;;;;;;11.49;100.00;100726.00;6198640;28;20054;-75
2021/05/11 05:16:58;;;;;;;5.55;2.40;;;;;;;11.53;100.00;100727.50;6199222;28;20101;-75
2021/05/11 05:19:59;;;;;;;6.00;2.60;;;;;;;11.61;100.00;100720.03;6198919;28;20054;-75
2021/05/11 05:23:00;;;;;;;6.53;2.80;;;;;;;11.58;100.00;100720.22;6198579;28;20050;-75
2021/05/11 05:26:04;;;;;;;3.95;2.30;;;;;;;11.69;100.00;100722.22;6198697;28;20055;-75
2021/05/11 05:29:05;;;;;;;5.30;2.80;;;;;;;11.69;100.00;100723.06;6198575;28;20065;-75
2021/05/11 05:32:07;;;;;;;4.20;2.83;;;;;;;11.75;100.00;100721.00;6198461;28;20042;-75
2021/05/11 05:35:09;;;;;;;7.20;2.60;;;;;;;11.74;100.00;100719.31;6198072;28;20052;-76
2021/05/11 05:38:10;;;;;;;4.05;2.40;;;;;;;11.75;100.00;100710.47;6198066;28;20117;-75
2021/05/11 05:41:14;;;;;;;7.13;2.45;;;;;;;11.82;100.00;100714.44;6198600;28;20089;-75
2021/05/11 05:44:14;;;;;;;5.65;3.10;;;;;;;11.96;100.00;100718.94;6198237;28;20084;-75
2021/05/11 05:47:17;;;;;;;9.07;5.05;;;;;;;11.97;100.00;100726.72;6198177;28;20050;-75
2021/05/11 05:50:20;;;;;;;3.75;3.20;;;;;;;11.98;100.00;100728.41;6198463;28;20058;-76
2021/05/11 05:53:27;;;;;;;4.72;2.85;;;;;;;12.02;100.00;100726.47;6197690;28;20082;-75
2021/05/11 05:56:28;;;;;;;4.05;2.67;;;;;;;12.02;100.00;100724.66;6198099;28;20082;-75
2021/05/11 05:59:30;;;;;;;5.15;3.20;;;;;;;12.04;100.00;100722.81;6198054;28;20104;-75
2021/05/11 06:02:31;;;;;;;6.35;3.03;;;;;;;12.00;100.00;100723.94;6198115;28;20046;-76
2021/05/11 06:05:33;;;;;;;4.20;3.30;;;;;;;12.00;100.00;100716.03;6197795;28;20054;-75
2021/05/11 06:08:36;;;;;;;7.57;3.45;;;;;;;12.12;100.00;100717.91;6197772;28;20065;-76
2021/05/11 06:11:41;;;;;;;5.93;3.50;;;;;;;12.17;100.00;100709.72;6197883;28;20085;-76
2021/05/11 06:14:49;;;;;;;5.82;3.83;;;;;;;12.18;100.00;100691.22;6197669;28;20141;-75
2021/05/11 06:17:52;;;;;;;6.13;3.95;;;;;;;12.24;100.00;100689.97;6197698;28;20530;-75
2021/05/11 06:20:53;;;;;;;5.88;4.13;;;;;;;12.30;100.00;100708.03;6197731;28;20057;-75
2021/05/11 06:23:54;;;;;;;6.50;4.07;;;;;;;12.32;100.00;100700.91;6197691;28;20050;-76
2021/05/11 06:26:55;;;;;;;5.22;3.55;;;;;;;12.32;100.00;100702.69;6197488;28;20064;-76
2021/05/11 06:29:56;;;;;;;5.82;4.10;;;;;;;12.27;100.00;100691.59;6197848;28;20050;-76
2021/05/11 06:32:58;;;;;;;5.80;3.80;;;;;;;12.32;100.00;100687.72;6197396;28;20046;-75
2021/05/11 06:35:59;;;;;;;5.90;4.10;;;;;;;12.37;100.00;100679.53;6197524;28;20117;-76
2021/05/11 06:39:02;;;;;;;8.05;3.88;;;;;;;12.41;100.00;100679.25;6197516;28;20050;-76
2021/05/11 06:42:04;;;;;;;6.10;3.67;;;;;;;12.51;100.00;100681.31;6197658;28;20085;-76
2021/05/11 06:45:13;;;;;;;4.03;3.47;;;;;;;12.53;100.00;100688.16;6197438;28;20462;-76
2021/05/11 06:48:16;;;;;;;5.30;3.33;;;;;;;12.53;100.00;100688.16;6197741;28;20181;-76
2021/05/11 06:54:37;;;;;;;7.38;3.50;;;;;;;12.55;100.00;100688.94;6196927;28;20050;-76
2021/05/11 06:57:38;;;;;;;3.63;3.28;;;;;;;12.58;100.00;100688.75;6197184;28;20082;-77
2021/05/11 07:00:42;;;;;;;5.45;3.40;;;;;;;12.64;100.00;100672.53;6197492;28;20057;-77
2021/05/11 07:03:44;;;;;;;5.60;3.13;;;;;;;12.70;100.00;100658.97;6196874;28;20422;-75
2021/05/11 07:06:45;;;;;;;4.80;3.05;;;;;;;12.68;100.00;100646.84;6197518;28;20053;-77
2021/05/11 07:10:03;;;;;;;3.38;2.90;;;;;;;12.73;100.00;100646.53;6197425;28;20050;-76
2021/05/11 07:13:11;;;;;;;8.07;3.60;;;;;;;12.82;100.00;100653.84;6197248;28;20058;-76
2021/05/11 07:16:12;;;;;;;4.57;3.85;;;;;;;12.95;100.00;100662.69;6197031;28;20523;-76
2021/05/11 07:19:14;;;;;;;3.30;2.85;;;;;;;12.97;100.00;100662.56;6197518;28;20054;-76
2021/05/11 07:22:15;;;;;;;6.28;3.58;;;;;;;12.96;100.00;100656.44;6199174;28;20112;-77
2021/05/11 07:25:15;;;;;;;3.40;2.90;;;;;;;12.94;100.00;100647.78;6200908;28;20074;-81
2021/05/11 07:28:40;;;;;;;5.05;3.10;;;;;;;12.87;100.00;100665.81;6200929;28;20089;-77
2021/05/11 07:31:40;;;;;;;3.65;3.22;;;;;;;12.79;100.00;100686.53;6198849;28;20085;-76
2021/05/11 07:34:46;;;;;;;4.75;3.30;;;;;;;12.81;100.00;100689.06;6193768;28;20046;-78
2021/05/11 07:37:46;;;;;;;4.78;3.28;;;;;;;12.82;100.00;100669.69;6201187;28;20545;-76
2021/05/11 07:40:47;;;;;;;6.38;3.70;;;;;;;12.78;100.00;100669.03;6201387;28;20047;-76
2021/05/11 07:43:52;;;;;;;5.38;2.75;;;;;;;12.87;100.00;100670.22;6200969;28;20061;-77
2021/05/11 07:46:56;;;;;;;5.35;3.05;;;;;;;12.85;100.00;100657.16;6201549;28;20062;-77
2021/05/11 07:50:28;;;;;;;3.88;3.00;;;;;;;12.81;100.00;100647.75;6187114;28;20046;-76
2021/05/11 08:03:57;;;;;;;3.53;3.10;;;;;;;13.07;100.00;100651.31;6177383;28;20411;-77
2021/05/11 08:10:30;;;;;;;4.00;2.75;;;;;;;13.08;100.00;100645.09;6180295;28;20054;-77
2021/05/11 08:16:55;;;;;;;3.42;3.05;;;;;;;13.04;100.00;100645.41;6200315;28;20472;-76
2021/05/11 08:20:06;;;;;;;2.83;2.63;;;;;;;12.99;100.00;100650.13;6200528;28;20047;-77
2021/05/11 08:29:50;;;;;;;3.05;2.53;;;;;;;13.12;100.00;100638.66;6203076;28;20133;-79
2021/05/11 08:32:51;;;;;;;2.55;2.35;;;;;;;13.09;100.00;100623.06;6202124;28;20061;-77
2021/05/11 08:35:52;;;;;;;6.57;3.00;;;;;;;12.98;100.00;100617.63;6200832;28;20054;-77
2021/05/11 08:38:56;;;;;;;3.00;2.75;;;;;;;12.95;100.00;100621.31;6199818;28;20092;-76
2021/05/11 08:41:57;;;;;;;3.67;3.08;;;;;;;13.00;100.00;100623.66;6199564;28;20058;-76
2021/05/11 08:45:02;;;;;;;6.75;3.10;;;;;;;13.16;100.00;100631.38;6199538;28;20050;-75
2021/05/11 08:48:03;;;;;;;6.43;3.60;;;;;;;13.06;100.00;100631.16;6199402;28;20467;-76
2021/05/11 08:51:08;;;;;;;3.13;2.83;;;;;;;13.02;100.00;100632.28;6199271;28;20466;-76
2021/05/11 08:54:25;;;;;;;3.25;2.80;;;;;;;13.06;100.00;100632.94;6199596;28;20133;-77
2021/05/11 09:07:43;;;;;;;3.88;2.80;;;;;;;13.02;100.00;100634.09;6199093;28;20086;-78
2021/05/11 09:14:32;;;;;;;3.13;2.80;;;;;;;13.14;100.00;100620.09;6199266;28;20046;-77
2021/05/11 09:27:56;;;;;;;4.90;3.65;;;;;;;13.40;100.00;100606.06;6201045;28;20046;-79
2021/05/11 09:31:03;;;;;;;4.70;3.42;;;;;;;13.30;100.00;100615.50;6199599;28;20050;-78
2021/05/11 09:34:18;;;;;;;5.20;3.17;;;;;;;13.38;100.00;100612.38;6199641;28;20058;-78
2021/05/11 09:51:28;;;;;;;9.25;3.60;;;;;;;13.38;100.00;100618.50;6198409;28;20054;-76
2021/05/11 09:57:56;;;;;;;8.70;2.45;;;;;;;13.30;100.00;100636.63;6194526;28;20055;-77
2021/05/11 10:32:24;;;;;;;7.68;2.60;;;;;;;13.40;100.00;100645.66;6198051;28;20050;-77
2021/05/11 10:43:40;;;;;;;6.88;3.10;;;;;;;13.49;100.00;100645.97;6197498;28;20054;-78
2021/05/11 10:46:30;;;;;;;8.02;2.70;;;;;;;13.54;100.00;100652.66;6196645;28;20060;-76
2021/05/11 10:49:33;;;;;;;3.35;2.10;;;;;;;13.78;100.00;100639.56;6182045;28;20514;-76
2021/05/11 10:52:42;;;;;;;5.18;2.08;;;;;;;13.73;100.00;100631.13;6188081;28;20081;-77
2021/05/11 10:55:45;;;;;;;7.53;2.20;;;;;;;13.72;100.00;100629.44;6190235;28;20065;-77
2021/05/11 10:59:23;;;;;;;7.00;2.40;;;;;;;13.65;100.00;100634.28;6202459;28;20054;-78
2021/05/11 11:05:53;;;;;;;6.88;2.60;;;;;;;13.56;100.00;100658.66;6200196;28;20047;-78
2021/05/11 11:09:07;;;;;;;4.20;2.20;;;;;;;13.39;100.00;100651.84;6180261;28;20082;-80
2021/05/11 11:12:10;;;;;;;8.57;2.47;;;;;;;13.32;100.00;100640.03;6179707;28;20495;-77
2021/05/11 11:15:14;;;;;;;5.03;2.55;;;;;;;13.45;100.00;100621.59;6178400;28;20081;-78
2021/05/11 11:18:21;;;;;;;7.78;2.67;;;;;;;13.38;100.00;100593.91;6191505;28;20572;-79
2021/05/11 11:21:45;;;;;;;5.05;2.35;;;;;;;13.59;100.00;100573.97;6204133;28;20054;-78
2021/05/11 11:24:46;;;;;;;4.20;2.08;;;;;;;13.71;100.00;100590.75;6202834;28;20061;-78
2021/05/11 11:27:48;;;;;;;4.05;1.88;;;;;;;13.91;100.00;100579.66;6192006;28;20426;-77
2021/05/11 11:30:49;;;;;;;9.07;2.25;;;;;;;13.93;100.00;100583.03;6177817;28;20058;-78
2021/05/11 11:33:50;;;;;;;3.78;2.05;;;;;;;14.08;100.00;100582.88;6176667;28;20102;-77
2021/05/11 11:36:56;;;;;;;5.60;1.95;;;;;;;14.04;100.00;100571.72;6178153;28;20388;-77
2021/05/11 11:40:00;;;;;;;5.70;1.80;;;;;;;13.99;100.00;100568.56;6181190;28;20101;-77
2021/05/11 11:43:00;;;;;;;5.43;2.15;;;;;;;14.01;100.00;100549.94;6201758;28;20141;-77
2021/05/11 11:46:01;;;;;;;2.88;1.92;;;;;;;14.04;99.19;100531.25;6202879;28;20065;-77
2021/05/11 11:49:08;;;;;;;5.47;1.75;;;;;;;14.07;98.85;100525.72;6201714;28;20046;-77
2021/05/11 11:52:12;;;;;;;4.20;1.73;;;;;;;14.09;100.00;100529.13;6201577;28;20621;-77
2021/05/11 11:55:38;;;;;;;5.72;2.00;;;;;;;14.18;100.00;100534.56;6200867;28;20053;-78
2021/05/11 11:58:39;;;;;;;4.78;2.20;;;;;;;14.12;100.00;100544.72;6201634;28;20090;-77
2021/05/11 12:01:40;;;;;;;4.65;1.90;;;;;;;14.12;100.00;100552.66;6201622;28;20053;-78
2021/05/11 12:04:40;;;;;;;11.27;5.93;;;;;;;14.12;100.00;100556.13;6200680;28;20054;-78
2021/05/11 12:07:56;;;;;;;5.18;2.72;;;;;;;14.37;100.00;100560.53;6201197;28;20051;-78
2021/05/11 12:11:01;;;;;;;4.95;2.22;;;;;;;14.51;99.96;100548.97;6202792;28;20065;-78
2021/05/11 12:14:02;;;;;;;4.88;1.90;;;;;;;14.51;98.65;100575.44;6201704;28;20050;-79
2021/05/11 12:17:03;;;;;;;5.50;2.08;;;;;;;14.57;100.00;100582.06;6201540;28;20054;-78
2021/05/11 12:20:20;;;;;;;3.72;1.30;;;;;;;14.56;98.82;100575.94;6201303;28;20521;-77
2021/05/11 12:23:21;;;;;;;3.45;1.60;;;;;;;14.50;99.13;100586.13;6200471;28;20122;-77
2021/05/11 12:26:23;;;;;;;43.25;5.45;;;;;;;14.43;100.00;100583.03;6199696;28;20046;-77
2021/05/11 12:29:24;;;;;;;6.10;2.50;;;;;;;14.47;100.00;100582.69;6199966;28;20462;-77
2021/05/11 12:32:25;;;;;;;8.52;2.58;;;;;;;14.55;100.00;100571.59;6200110;28;20054;-77
2021/05/11 12:35:29;;;;;;;5.15;2.25;;;;;;;14.67;97.38;100553.97;6198907;28;20057;-78
2021/05/11 12:38:31;;;;;;;8.25;3.22;;;;;;;14.53;99.20;100549.69;6201818;28;20050;-79
2021/05/11 12:41:33;;;;;;;6.70;2.25;;;;;;;14.61;98.64;100550.00;6202168;28;20053;-78
2021/05/11 12:44:34;;;;;;;5.68;2.53;;;;;;;14.59;100.00;100556.38;6200034;28;20423;-78
2021/05/11 12:47:42;;;;;;;8.13;2.97;;;;;;;14.55;100.00;100571.59;6199822;28;20054;-78
2021/05/11 12:50:44;;;;;;;5.32;2.63;;;;;;;14.59;100.00;100566.94;6199690;28;20489;-77
2021/05/11 12:53:47;;;;;;;5.03;2.53;;;;;;;14.61;100.00;100581.72;6200613;28;20519;-77
2021/05/11 12:56:59;;;;;;;5.82;2.47;;;;;;;14.68;99.84;100590.06;6200631;28;20108;-77
2021/05/11 13:00:00;;;;;;;6.20;2.60;;;;;;;14.74;98.47;100589.63;6199737;28;20056;-77
2021/05/11 13:03:19;;;;;;;14.55;3.35;;;;;;;14.64;99.21;100583.31;6200530;28;20042;-79
2021/05/11 13:16:20;;;;;;;5.75;3.10;;;;;;;14.64;98.90;100568.28;6200703;28;20081;-78
2021/05/11 13:22:44;;;;;;;6.30;2.53;;;;;;;14.51;98.33;100572.78;6198954;28;20423;-77
2021/05/11 13:25:47;;;;;;;4.88;2.60;;;;;;;14.53;100.00;100570.84;6187042;28;20134;-77
2021/05/11 13:28:53;;;;;;;6.90;2.85;;;;;;;14.50;100.00;100571.09;6197903;28;20046;-78
2021/05/11 13:31:57;;;;;;;6.43;3.00;;;;;;;14.53;99.63;100570.84;6196005;28;20042;-78
2021/05/11 13:34:59;;;;;;;9.68;2.70;;;;;;;14.51;100.00;100579.88;6198489;28;20053;-77
2021/05/11 13:38:00;;;;;;;10.43;3.22;;;;;;;14.42;100.00;100576.06;6198659;28;20054;-79
2021/05/11 13:41:01;;;;;;;7.15;3.25;;;;;;;14.48;100.00;100578.28;6199559;28;20046;-80
2021/05/11 13:44:05;;;;;;;7.82;3.60;;;;;;;14.47;99.99;100580.06;6198959;28;20050;-80
2021/05/11 13:47:06;;;;;;;6.75;3.17;;;;;;;14.46;99.79;100577.53;6199477;28;20054;-80
2021/05/11 13:50:08;;;;;;;5.45;3.30;;;;;;;14.52;100.00;100566.53;6199797;28;20058;-79
2021/05/11 13:53:09;;;;;;;7.32;3.30;;;;;;;14.42;100.00;100553.09;6198757;28;20054;-82
2021/05/11 13:56:25;;;;;;;6.88;3.42;;;;;;;14.49;100.00;100548.25;6199519;28;20082;-79
2021/05/11 14:02:49;;;;;;;9.05;3.58;;;;;;;14.53;100.00;100555.00;6200913;28;20047;-79
2021/05/11 14:05:50;;;;;;;7.18;3.60;;;;;;;14.38;100.00;100564.84;6207649;28;20450;-79
2021/05/11 14:08:51;;;;;;;9.65;3.63;;;;;;;14.59;100.00;100551.06;6197417;28;20074;-80
2021/05/11 14:11:52;;;;;;;8.13;3.58;;;;;;;14.38;100.00;100540.22;6206312;28;20100;-78
2021/05/11 14:14:53;;;;;;;7.10;3.42;;;;;;;14.31;100.00;100542.47;6206511;28;20051;-80
2021/05/11 14:17:56;;;;;;;8.38;4.53;;;;;;;14.43;100.00;100540.72;6207401;28;20050;-78
2021/05/11 14:20:57;;;;;;;6.53;3.10;;;;;;;14.47;100.00;100558.06;6208180;28;20450;-80
2021/05/11 14:23:58;;;;;;;6.03;3.13;;;;;;;14.43;100.00;100568.00;6210529;28;20054;-79
2021/05/11 14:26:59;;;;;;;13.25;3.05;;;;;;;14.41;100.00;100562.00;6208907;28;20058;-80
2021/05/11 14:30:01;;;;;;;21.02;4.22;;;;;;;14.52;100.00;100569.19;6211450;28;20057;-79
2021/05/11 14:33:02;;;;;;;10.57;3.42;;;;;;;14.46;100.00;100559.88;6213525;28;20134;-79
2021/05/11 14:36:04;;;;;;;33.90;4.68;;;;;;;14.53;99.56;100559.44;6210407;28;20062;-78
2021/05/11 14:39:05;;;;;;;9.85;3.80;;;;;;;14.42;100.00;100557.56;6206805;28;20070;-78
2021/05/11 14:42:07;;;;;;;7.00;3.00;;;;;;;14.42;100.00;100561.03;6205703;28;20053;-77
2021/05/11 14:45:10;;;;;;;9.00;4.10;;;;;;;14.57;100.00;100548.53;6205425;28;20046;-77
2021/05/11 14:48:11;;;;;;;75.63;37.60;;;;;;;14.59;100.00;100545.78;6206348;28;20054;-79
2021/05/11 14:51:12;;;;;;;9.95;5.22;;;;;;;14.64;100.00;100546.28;6207185;28;20057;-78
2021/05/11 14:54:13;;;;;;;13.90;6.72;;;;;;;14.60;99.37;100550.94;6205733;28;20124;-79
2021/05/11 14:57:14;;;;;;;10.75;5.57;;;;;;;14.60;99.83;100550.94;6204186;28;20047;-80
2021/05/11 15:00:16;;;;;;;7.55;5.20;;;;;;;14.49;100.00;100539.47;6204086;28;20050;-80
2021/05/11 15:03:17;;;;;;;5.63;3.92;;;;;;;14.50;100.00;100534.09;6203159;28;20050;-80
2021/05/11 15:06:18;;;;;;;6.10;3.67;;;;;;;14.53;100.00;100527.69;6203771;28;20057;-80
2021/05/11 15:09:30;;;;;;;7.85;3.70;;;;;;;14.49;100.00;100527.13;6203314;28;20073;-79
2021/05/11 15:12:31;;;;;;;10.25;3.92;;;;;;;14.54;100.00;100526.78;6203662;28;20129;-79
2021/05/11 15:15:34;;;;;;;6.60;3.75;;;;;;;14.67;100.00;100528.41;6202588;28;20081;-79
2021/05/11 15:18:35;;;;;;;8.52;3.65;;;;;;;14.63;100.00;100519.00;6203183;28;20061;-80
2021/05/11 15:21:36;;;;;;;3.83;2.47;;;;;;;14.66;100.00;100515.25;6203367;28;20110;-80
2021/05/11 15:24:37;;;;;;;7.60;1.80;;;;;;;14.78;97.32;100524.09;6202690;28;20057;-79
2021/05/11 15:27:38;;;;;;;8.55;2.10;;;;;;;14.82;97.06;100530.84;6203129;28;20557;-79
2021/05/11 15:30:39;;;;;;;4.70;1.45;;;;;;;14.85;97.87;100538.56;6202397;28;20457;-79
2021/05/11 15:33:40;;;;;;;3.03;1.50;;;;;;;14.76;98.33;100540.09;6200822;28;20058;-79
2021/05/11 15:36:41;;;;;;;6.18;1.90;;;;;;;14.73;98.78;100527.09;6201867;28;20133;-79
2021/05/11 15:39:42;;;;;;;3.60;1.58;;;;;;;14.64;96.78;100536.56;6202049;28;20050;-79
2021/05/11 15:42:43;;;;;;;7.65;1.85;;;;;;;14.61;91.82;100523.53;6201384;28;20160;-79
2021/05/11 15:45:46;;;;;;;2.85;1.48;;;;;;;14.66;94.49;100524.03;6201701;28;20104;-79
2021/05/11 15:48:47;;;;;;;5.68;1.80;;;;;;;14.57;91.52;100529.16;6202291;28;20058;-80
2021/05/11 15:51:48;;;;;;;4.82;1.70;;;;;;;14.48;94.26;100546.56;6202528;28;20142;-80
2021/05/11 15:54:50;;;;;;;7.82;1.75;;;;;;;14.40;96.15;100535.69;6201948;28;20050;-80
2021/05/11 15:57:51;;;;;;;4.05;2.00;;;;;;;14.34;98.01;100539.59;6201959;28;20055;-80
2021/05/11 16:00:53;;;;;;;4.35;2.15;;;;;;;14.34;96.66;100536.94;6201100;28;20510;-80
2021/05/11 16:03:54;;;;;;;7.75;1.80;;;;;;;14.35;97.97;100535.16;6199996;28;20418;-79
2021/05/11 16:06:58;;;;;;;4.88;1.35;;;;;;;14.34;98.97;100542.22;6201304;28;20061;-80
2021/05/11 16:09:59;;;;;;;3.35;1.60;;;;;;;14.32;99.35;100540.69;6197809;28;20422;-80
2021/05/11 16:13:00;;;;;;;4.32;1.58;;;;;;;14.35;95.03;100545.72;6195326;28;20045;-80
2021/05/11 16:16:04;;;;;;;3.10;1.55;;;;;;;14.28;96.57;100545.34;6177412;28;20467;-80
2021/05/11 16:19:05;;;;;;;5.97;1.70;;;;;;;14.25;99.02;100552.63;6178322;28;20058;-79
2021/05/11 16:22:06;;;;;;;6.82;1.25;;;;;;;14.22;100.00;100559.00;6178134;28;20047;-81
2021/05/11 16:25:09;;;;;;;5.03;1.52;;;;;;;14.20;100.00;100560.88;6178034;28;20534;-80
2021/05/11 16:28:11;;;;;;;3.90;1.77;;;;;;;14.13;100.00;100557.00;6178468;28;20055;-79
2021/05/11 16:31:13;;;;;;;5.47;2.75;;;;;;;14.18;100.00;100549.59;6192049;28;20093;-80
2021/05/11 16:34:14;;;;;;;5.90;3.30;;;;;;;14.40;100.00;100546.25;6178265;28;20046;-81
2021/05/11 16:37:15;;;;;;;11.00;4.63;;;;;;;14.28;100.00;100547.13;6179800;28;20047;-80
2021/05/11 16:40:16;;;;;;;9.23;4.10;;;;;;;14.48;100.00;100551.84;6181016;28;20054;-80
2021/05/11 16:43:19;;;;;;;10.18;4.55;;;;;;;14.19;100.00;100552.13;6178363;28;20458;-81
2021/05/11 16:46:21;;;;;;;8.35;4.50;;;;;;;14.22;100.00;100548.44;6180246;28;20046;-81
2021/05/11 16:49:22;;;;;;;13.57;4.55;;;;;;;14.09;100.00;100537.88;6180252;28;20415;-81
2021/05/11 16:52:23;;;;;;;9.50;4.82;;;;;;;14.19;100.00;100538.91;6180451;28;20051;-79